createdAt,value
2022-08-12T00:02:20.107Z,19.71
2022-08-12T00:05:56.332Z,19.70
2022-08-12T00:09:26.250Z,19.72
2022-08-12T00:12:46.988Z,19.60
2022-08-12T00:16:08.925Z,19.68
2022-08-12T00:19:29.402Z,19.54
2022-08-12T00:22:58.621Z,19.60
2022-08-12T00:26:22.224Z,19.51
2022-08-12T00:29:47.775Z,19.33
2022-08-12T00:33:08.733Z,19.37
2022-08-12T00:36:35.171Z,19.32
2022-08-12T00:39:58.666Z,19.34
2022-08-12T00:43:01.635Z,19.28
2022-08-12T00:46:22.855Z,19.23
2022-08-12T00:49:27.080Z,19.17
2022-08-12T00:52:29.815Z,19.19
2022-08-12T00:55:33.972Z,19.29
2022-08-12T00:58:38.255Z,19.49
2022-08-12T01:02:04.272Z,19.46
2022-08-12T01:05:28.410Z,19.52
2022-08-12T01:08:44.980Z,19.55
2022-08-12T01:11:49.671Z,19.55
2022-08-12T01:14:53.809Z,19.48
2022-08-12T01:17:56.992Z,19.34
2022-08-12T01:21:08.270Z,19.38
2022-08-12T01:24:31.323Z,19.24
2022-08-12T01:27:36.531Z,19.17
2022-08-12T01:30:41.162Z,19.11
2022-08-12T01:33:47.138Z,19.24
2022-08-12T01:36:54.361Z,19.21
2022-08-12T01:40:33.412Z,19.17
2022-08-12T01:43:25.478Z,18.87
2022-08-12T01:46:40.586Z,18.83
2022-08-12T01:49:51.972Z,18.66
2022-08-12T01:53:00.192Z,18.57
2022-08-12T01:56:04.245Z,18.45
2022-08-12T01:59:29.205Z,18.56
2022-08-12T02:02:35.029Z,18.54
2022-08-12T02:06:01.998Z,18.45
2022-08-12T02:09:23.109Z,18.41
2022-08-12T02:12:43.941Z,18.27
2022-08-12T02:15:57.648Z,18.15
2022-08-12T02:19:22.022Z,18.08
2022-08-12T02:22:31.274Z,18.07
2022-08-12T02:25:35.813Z,18.04
2022-08-12T02:28:38.756Z,18.15
2022-08-12T02:31:45.590Z,18.21
2022-08-12T02:34:48.387Z,18.25
2022-08-12T02:37:53.698Z,18.11
2022-08-12T02:40:59.140Z,18.11
2022-08-12T02:44:06.165Z,18.00
2022-08-12T02:47:58.340Z,18.05
2022-08-12T02:50:36.422Z,17.91
2022-08-12T02:53:40.408Z,17.85
2022-08-12T02:56:50.624Z,17.84
2022-08-12T02:59:54.142Z,17.84
2022-08-12T03:03:01.844Z,17.80
2022-08-12T03:06:08.194Z,17.70
2022-08-12T03:09:14.627Z,17.57
2022-08-12T03:12:19.957Z,17.50
2022-08-12T03:15:24.969Z,17.46
2022-08-12T03:18:31.896Z,17.45
2022-08-12T03:21:54.660Z,17.45
2022-08-12T03:25:05.464Z,17.41
2022-08-12T03:28:11.142Z,17.49
2022-08-12T03:31:29.733Z,17.49
2022-08-12T03:34:36.749Z,17.46
2022-08-12T03:37:41.407Z,17.59
2022-08-12T03:41:12.227Z,17.44
2022-08-12T03:44:36.043Z,17.40
2022-08-12T03:47:58.327Z,17.36
2022-08-12T03:51:20.657Z,17.32
2022-08-12T03:54:42.720Z,17.29
2022-08-12T03:58:03.288Z,17.21
2022-08-12T04:01:06.783Z,17.13
2022-08-12T04:04:10.577Z,17.09
2022-08-12T04:07:17.190Z,17.02
2022-08-12T04:10:20.715Z,17.01
2022-08-12T04:13:23.906Z,16.96
2022-08-12T04:16:36.234Z,17.06
2022-08-12T04:19:39.719Z,17.11
2022-08-12T04:22:45.005Z,17.16
2022-08-12T04:25:48.757Z,17.14
2022-08-12T04:28:52.175Z,17.14
2022-08-12T04:31:57.673Z,17.15
2022-08-12T04:35:01.168Z,17.23
2022-08-12T04:38:09.575Z,17.28
2022-08-12T04:41:13.470Z,17.28
2022-08-12T04:44:17.674Z,17.24
2022-08-12T04:47:21.600Z,17.27
2022-08-12T04:50:33.766Z,17.30
2022-08-12T04:53:41.317Z,17.41
2022-08-12T04:56:44.703Z,17.51
2022-08-12T05:00:11.278Z,17.62
2022-08-12T05:03:15.489Z,17.70
2022-08-12T05:06:26.317Z,17.66
2022-08-12T05:09:59.079Z,17.73
2022-08-12T05:12:57.388Z,17.73
2022-08-12T05:16:09.299Z,17.80
2022-08-12T05:19:18.757Z,17.85
2022-08-12T05:22:25.880Z,17.95
2022-08-12T05:25:31.547Z,17.94
2022-08-12T05:28:34.784Z,18.11
2022-08-12T05:31:47.414Z,18.23
2022-08-12T05:34:53.827Z,18.37
2022-08-12T05:38:10.450Z,18.49
2022-08-12T05:41:20.540Z,18.64
2022-08-12T05:44:23.620Z,18.77
2022-08-12T05:47:40.668Z,18.87
2022-08-12T05:50:56.872Z,18.95
2022-08-12T05:54:02.202Z,19.00
2022-08-12T05:57:08.367Z,19.09
2022-08-12T06:00:13.328Z,19.18
2022-08-12T06:03:19.307Z,19.39
2022-08-12T06:06:27.407Z,19.53
2022-08-12T06:09:32.130Z,19.56
2022-08-12T06:12:36.336Z,19.60
2022-08-12T06:15:41.106Z,19.67
2022-08-12T06:18:44.263Z,19.75
2022-08-12T06:21:48.739Z,19.94
2022-08-12T06:24:53.038Z,20.09
2022-08-12T06:28:06.425Z,20.26
2022-08-12T06:31:25.891Z,20.33
2022-08-12T06:35:23.978Z,20.53
2022-08-12T06:37:56.748Z,20.81
2022-08-12T06:41:18.853Z,20.96
2022-08-12T06:44:23.237Z,21.09
2022-08-12T06:47:26.151Z,21.16
2022-08-12T06:50:31.004Z,21.30
2022-08-12T06:53:37.226Z,21.49
2022-08-12T06:57:03.137Z,21.61
2022-08-12T07:00:05.221Z,21.78
2022-08-12T07:03:22.661Z,21.86
2022-08-12T07:06:26.731Z,21.91
2022-08-12T07:10:04.725Z,22.11
2022-08-12T07:12:54.888Z,22.26
2022-08-12T07:15:59.660Z,22.37
2022-08-12T07:19:04.250Z,22.49
2022-08-12T07:22:07.713Z,22.59
2022-08-12T07:25:29.039Z,22.85
2022-08-12T07:28:34.913Z,23.12
2022-08-12T07:31:39.794Z,23.23
2022-08-12T07:34:43.551Z,23.34
2022-08-12T07:37:47.328Z,23.56
2022-08-12T07:40:50.552Z,23.71
2022-08-12T07:43:54.997Z,23.82
2022-08-12T07:46:59.348Z,23.97
2022-08-12T07:50:05.494Z,24.01
2022-08-12T07:53:10.399Z,24.13
2022-08-12T07:56:13.721Z,24.26
2022-08-12T07:59:17.216Z,24.38
2022-08-12T08:02:26.500Z,24.46
2022-08-12T08:05:37.335Z,24.53
2022-08-12T08:08:41.809Z,24.61
2022-08-12T08:12:01.952Z,24.86
2022-08-12T08:15:08.008Z,25.00
2022-08-12T08:18:26.654Z,25.14
2022-08-12T08:21:35.482Z,25.28
2022-08-12T08:24:38.504Z,25.19
2022-08-12T08:27:46.474Z,25.27
2022-08-12T08:30:50.497Z,25.53
2022-08-12T08:34:04.732Z,25.71
2022-08-12T08:37:17.048Z,25.82
2022-08-12T08:40:38.194Z,25.87
2022-08-12T08:43:44.098Z,25.97
2022-08-12T08:46:47.895Z,26.07
2022-08-12T08:49:52.337Z,26.24
2022-08-12T08:52:55.197Z,26.43
2022-08-12T08:56:05.035Z,26.54
2022-08-12T08:59:08.473Z,26.54
2022-08-12T09:02:11.275Z,26.60
2022-08-12T09:05:25.385Z,26.68
2022-08-12T09:08:29.563Z,26.44
2022-08-12T09:15:17.114Z,26.71
2022-08-12T09:21:54.331Z,27.07
2022-08-12T09:25:01.252Z,27.21
2022-08-12T09:28:10.773Z,27.05
2022-08-12T09:32:05.891Z,27.18
2022-08-12T09:34:42.406Z,27.16
2022-08-12T09:37:57.689Z,27.20
2022-08-12T09:42:34.190Z,27.43
2022-08-12T09:44:45.526Z,27.65
2022-08-12T09:47:57.061Z,27.65
2022-08-12T09:51:03.788Z,27.76
2022-08-12T09:54:33.974Z,27.86
2022-08-12T09:58:47.063Z,27.85
2022-08-12T10:01:06.352Z,27.72
2022-08-12T10:04:19.829Z,27.91
2022-08-12T10:07:28.630Z,28.08
2022-08-12T10:10:59.002Z,27.88
2022-08-12T10:14:02.904Z,28.14
2022-08-12T10:17:08.901Z,28.38
2022-08-12T10:20:12.734Z,28.47
2022-08-12T10:23:16.022Z,28.65
2022-08-12T10:26:39.337Z,28.77
2022-08-12T10:30:11.908Z,28.73
2022-08-12T10:33:19.302Z,28.64
2022-08-12T10:36:36.407Z,28.78
2022-08-12T10:40:03.192Z,28.93
2022-08-12T10:43:25.811Z,28.50
2022-08-12T10:46:32.048Z,28.03
2022-08-12T10:50:03.660Z,27.99
2022-08-12T10:53:00.579Z,28.32
2022-08-12T10:56:03.807Z,29.01
2022-08-12T10:59:11.038Z,29.54
2022-08-12T11:04:26.008Z,29.58
2022-08-12T11:07:05.005Z,29.16
2022-08-12T11:09:00.508Z,29.06
2022-08-12T11:12:36.949Z,29.30
2022-08-12T11:16:04.320Z,29.59
2022-08-12T11:18:57.042Z,29.35
2022-08-12T11:22:01.073Z,29.52
2022-08-12T11:25:10.647Z,29.69
2022-08-12T11:28:15.015Z,29.48
2022-08-12T11:31:20.102Z,29.78
2022-08-12T11:34:52.756Z,29.98
2022-08-12T11:37:58.108Z,29.82
2022-08-12T11:41:31.754Z,30.18
2022-08-12T11:44:43.228Z,29.83
2022-08-12T11:47:47.511Z,29.43
2022-08-12T11:50:52.092Z,29.74
2022-08-12T11:53:57.283Z,29.91
2022-08-12T11:58:09.153Z,30.16
2022-08-12T12:03:50.675Z,30.05
2022-08-12T12:07:07.096Z,30.27
2022-08-12T12:10:11.291Z,30.17
2022-08-12T12:13:23.207Z,30.26
2022-08-12T12:16:38.201Z,30.57
2022-08-12T12:19:46.402Z,30.73
2022-08-12T12:22:49.252Z,31.09
2022-08-12T12:25:59.295Z,31.01
2022-08-12T12:30:17.928Z,31.26
2022-08-12T12:32:33.070Z,31.45
2022-08-12T12:36:18.497Z,32.31
2022-08-12T12:39:00.571Z,33.39
2022-08-12T12:42:52.271Z,34.22
2022-08-12T12:45:26.047Z,33.53
2022-08-12T12:48:28.925Z,33.17
2022-08-12T12:51:49.399Z,32.94
2022-08-12T12:54:58.537Z,33.59
2022-08-12T12:58:01.302Z,38.76
2022-08-12T13:01:04.814Z,44.58
2022-08-12T13:04:27.070Z,48.65
2022-08-12T13:07:49.295Z,44.59
2022-08-12T13:10:54.713Z,43.00
2022-08-12T13:14:09.061Z,45.50
2022-08-12T13:17:16.655Z,47.88
2022-08-12T13:20:37.696Z,50.29
2022-08-12T13:23:46.580Z,50.42
2022-08-12T13:26:50.681Z,52.46
2022-08-12T13:29:55.993Z,44.92
2022-08-12T13:33:00.145Z,40.12
2022-08-12T13:36:10.262Z,37.90
2022-08-12T13:39:16.450Z,35.89
2022-08-12T13:42:19.372Z,36.99
2022-08-12T13:45:22.204Z,38.83
2022-08-12T13:48:28.967Z,37.60
2022-08-12T13:51:40.702Z,35.75
2022-08-12T13:54:55.837Z,36.75
2022-08-12T13:58:01.665Z,39.96
2022-08-12T14:01:06.359Z,36.65
2022-08-12T14:04:12.351Z,39.25
2022-08-12T14:07:15.333Z,46.54
2022-08-12T14:10:37.736Z,46.72
2022-08-12T14:14:04.888Z,49.77
2022-08-12T14:17:05.457Z,51.72
2022-08-12T14:20:15.738Z,51.90
2022-08-12T14:24:04.409Z,54.11
2022-08-12T14:26:44.243Z,54.01
2022-08-12T14:30:04.657Z,54.33
2022-08-12T14:33:09.121Z,53.37
2022-08-12T14:36:13.873Z,55.33
2022-08-12T14:39:17.510Z,54.38
2022-08-12T14:42:22.732Z,54.89
2022-08-12T14:45:44.979Z,54.63
2022-08-12T14:48:54.519Z,54.85
2022-08-12T14:52:43.229Z,54.55
2022-08-12T14:59:00.007Z,53.45
2022-08-12T15:02:21.503Z,50.01
2022-08-12T15:06:05.483Z,45.64
2022-08-12T15:08:48.118Z,40.01
2022-08-12T15:11:55.455Z,36.81
2022-08-12T15:15:08.837Z,34.93
2022-08-12T15:18:14.468Z,33.51
2022-08-12T15:21:17.702Z,32.59
2022-08-12T15:24:20.467Z,32.30
2022-08-12T15:28:11.104Z,31.93
2022-08-12T15:30:48.276Z,32.22
2022-08-12T15:33:51.139Z,32.13
2022-08-12T15:36:55.763Z,31.75
2022-08-12T15:40:03.128Z,37.03
2022-08-12T15:43:08.313Z,44.95
2022-08-12T15:46:15.496Z,49.57
2022-08-12T15:49:19.455Z,51.05
2022-08-12T15:52:27.294Z,52.67
2022-08-12T15:55:37.289Z,53.98
2022-08-12T15:58:49.026Z,48.79
2022-08-12T16:01:55.247Z,41.57
2022-08-12T16:04:58.869Z,36.60
2022-08-12T16:08:01.665Z,34.31
2022-08-12T16:11:07.446Z,33.08
2022-08-12T16:14:17.681Z,32.51
2022-08-12T16:17:26.077Z,32.05
2022-08-12T16:20:47.355Z,31.45
2022-08-12T16:23:54.930Z,31.21
2022-08-12T16:26:58.541Z,30.96
2022-08-12T16:30:04.391Z,30.64
2022-08-12T16:33:13.880Z,30.17
2022-08-12T16:36:20.639Z,30.07
2022-08-12T16:39:23.519Z,30.09
2022-08-12T16:42:28.905Z,30.05
2022-08-12T16:46:05.050Z,36.61
2022-08-12T16:48:58.375Z,40.93
2022-08-12T16:52:02.385Z,42.67
2022-08-12T16:55:12.940Z,42.95
2022-08-12T16:58:28.534Z,42.22
2022-08-12T17:01:37.578Z,39.67
2022-08-12T17:04:52.841Z,41.42
2022-08-12T17:07:56.170Z,38.64
2022-08-12T17:10:59.729Z,35.31
2022-08-12T17:14:02.558Z,33.11
2022-08-12T17:17:18.552Z,31.84
2022-08-12T17:20:36.485Z,30.85
2022-08-12T17:23:48.310Z,30.12
2022-08-12T17:26:56.440Z,29.71
2022-08-12T17:30:03.497Z,29.38
2022-08-12T17:33:07.605Z,29.15
2022-08-12T17:36:11.762Z,28.92
2022-08-12T17:39:14.585Z,28.73
2022-08-12T17:42:32.902Z,28.52
2022-08-12T17:45:39.036Z,28.29
2022-08-12T17:48:54.915Z,28.04
2022-08-12T17:52:02.633Z,27.91
2022-08-12T17:55:39.896Z,27.76
2022-08-12T17:58:37.613Z,27.51
2022-08-12T18:01:45.593Z,27.26
2022-08-12T18:05:04.569Z,27.11
2022-08-12T18:08:11.731Z,26.78
2022-08-12T18:12:03.153Z,26.65
2022-08-12T18:14:58.669Z,26.53
2022-08-12T18:18:02.593Z,26.38
2022-08-12T18:21:07.490Z,26.33
2022-08-12T18:24:21.591Z,26.20
2022-08-12T18:27:28.059Z,25.93
2022-08-12T18:30:34.595Z,25.88
2022-08-12T18:33:43.800Z,25.71
2022-08-12T18:36:54.046Z,25.51
2022-08-12T18:40:18.167Z,25.35
2022-08-12T18:43:20.801Z,25.19
2022-08-12T18:46:29.390Z,24.99
2022-08-12T18:49:39.112Z,24.80
2022-08-12T18:52:43.067Z,24.56
2022-08-12T18:55:59.268Z,24.40
2022-08-12T18:59:02.847Z,24.25
2022-08-12T19:02:19.424Z,24.08
2022-08-12T19:05:53.209Z,23.89
2022-08-12T19:08:50.671Z,23.83
2022-08-12T19:12:13.040Z,23.72
2022-08-12T19:15:24.163Z,23.62
2022-08-12T19:18:29.183Z,23.48
2022-08-12T19:21:33.427Z,23.17
2022-08-12T19:24:57.757Z,23.11
2022-08-12T19:28:05.716Z,23.28
2022-08-12T19:31:44.804Z,23.55
2022-08-12T19:38:27.029Z,23.44
2022-08-12T19:41:42.612Z,23.45
2022-08-12T19:45:04.523Z,23.55
2022-08-12T19:48:11.023Z,23.58
2022-08-12T19:51:33.365Z,23.54
2022-08-12T19:54:38.781Z,23.47
2022-08-12T19:58:03.375Z,23.32
2022-08-12T20:01:11.644Z,23.26
2022-08-12T20:04:14.809Z,23.30
2022-08-12T20:07:23.858Z,23.26
2022-08-12T20:10:35.123Z,23.02
2022-08-12T20:13:42.073Z,22.81
2022-08-12T20:16:52.103Z,22.80
2022-08-12T20:20:17.415Z,22.69
2022-08-12T20:23:23.274Z,22.61
2022-08-12T20:26:26.289Z,22.54
2022-08-12T20:29:36.538Z,22.44
2022-08-12T20:32:57.946Z,22.46
2022-08-12T20:36:14.468Z,22.52
2022-08-12T20:39:52.565Z,22.42
2022-08-12T20:42:47.992Z,22.28
2022-08-12T20:45:57.665Z,22.24
2022-08-12T20:49:14.771Z,22.24
2022-08-12T20:52:22.463Z,22.11
2022-08-12T20:55:43.057Z,22.06
2022-08-12T20:58:46.469Z,22.03
2022-08-12T21:01:54.063Z,21.77
2022-08-12T21:05:19.925Z,21.60
2022-08-12T21:08:26.437Z,21.56
2022-08-12T21:11:30.264Z,21.50
2022-08-12T21:14:39.660Z,21.34
2022-08-12T21:18:09.654Z,21.34
2022-08-12T21:21:24.003Z,21.17
2022-08-12T21:24:46.603Z,21.16
2022-08-12T21:27:59.126Z,21.13
2022-08-12T21:32:34.559Z,20.93
2022-08-12T21:34:29.666Z,20.94
2022-08-12T21:37:37.527Z,20.84
2022-08-12T21:40:51.846Z,20.79
2022-08-12T21:44:01.802Z,20.59
2022-08-12T21:47:06.654Z,20.56
2022-08-12T21:50:22.385Z,20.57
2022-08-12T21:54:06.982Z,20.50
2022-08-12T21:56:56.052Z,20.45
2022-08-12T21:59:58.739Z,20.37
2022-08-12T22:04:01.364Z,20.26
2022-08-12T22:06:44.525Z,20.21
2022-08-12T22:09:57.072Z,20.15
2022-08-12T22:13:00.910Z,20.07
2022-08-12T22:16:04.323Z,19.94
2022-08-12T22:19:07.351Z,19.92
2022-08-12T22:22:09.964Z,19.91
2022-08-12T22:25:16.719Z,19.93
2022-08-12T22:28:40.569Z,19.75
2022-08-12T22:31:43.426Z,19.74
2022-08-12T22:34:46.164Z,19.74
2022-08-12T22:37:48.737Z,19.53
2022-08-12T22:40:54.481Z,19.29
2022-08-12T22:44:14.970Z,19.29
2022-08-12T22:47:53.280Z,19.23
2022-08-12T22:50:59.379Z,19.34
2022-08-12T22:54:02.201Z,19.32
2022-08-12T22:57:11.941Z,19.29
2022-08-12T23:00:24.578Z,19.17
2022-08-12T23:03:47.651Z,19.14
2022-08-12T23:06:56.133Z,19.15
2022-08-12T23:09:58.829Z,19.04
2022-08-12T23:13:28.105Z,19.08
2022-08-12T23:16:49.483Z,19.06
2022-08-12T23:19:55.479Z,19.02
2022-08-12T23:23:09.196Z,19.05
2022-08-12T23:26:12.038Z,18.93
2022-08-12T23:29:26.018Z,18.78
2022-08-12T23:32:35.740Z,18.79
2022-08-12T23:35:45.844Z,18.71
2022-08-12T23:39:01.749Z,18.68
2022-08-12T23:42:17.729Z,18.62
2022-08-12T23:45:30.761Z,18.67
2022-08-12T23:48:34.621Z,18.63
2022-08-12T23:51:37.647Z,18.60
2022-08-12T23:54:44.871Z,18.58
2022-08-12T23:58:17.665Z,18.60
